TimeEDT,TemperatureF,Dew PointF,Humidity,Sea Level PressureIn,VisibilityMPH,Wind Direction,Wind SpeedMPH,Gust SpeedMPH,PrecipitationIn,Events,Conditions,WindDirDegrees,DateUTC
12:07 AM,62.6,62.6,100,29.98,9.0,SSW,8.1,-,0.01,Thunderstorm,Mostly Cloudy,200,2013-05-23 04:07:00
12:22 AM,62.6,62.6,100,29.97,8.0,Calm,Calm,-,0.01,,Overcast,0,2013-05-23 04:22:00
12:53 AM,62.1,61.0,96,29.94,10.0,Calm,Calm,-,0.01,,Scattered Clouds,0,2013-05-23 04:53:00
1:53 AM,63.0,62.1,97,29.94,7.0,South,3.5,-,N/A,,Mostly Cloudy,190,2013-05-23 05:53:00
2:53 AM,63.0,63.0,100,29.93,5.0,North,3.5,-,0.07,Rain,Rain,10,2013-05-23 06:53:00
3:53 AM,63.0,63.0,100,29.93,7.0,South,3.5,-,0.09,,Overcast,180,2013-05-23 07:53:00
4:53 AM,63.0,62.1,97,29.92,6.0,Calm,Calm,-,N/A,,Mostly Cloudy,0,2013-05-23 08:53:00
5:53 AM,63.0,63.0,100,29.92,7.0,Calm,Calm,-,0.00,Rain,Light Rain,0,2013-05-23 09:53:00
6:00 AM,62.6,62.6,100,29.94,7.0,Calm,Calm,-,0.00,Rain,Light Rain,0,2013-05-23 10:00:00
6:14 AM,62.6,62.6,100,29.94,7.0,Calm,Calm,-,0.00,,Overcast,0,2013-05-23 10:14:00
6:53 AM,63.0,63.0,100,29.93,7.0,SE,3.5,-,0.00,,Mostly Cloudy,140,2013-05-23 10:53:00
7:02 AM,62.6,62.6,100,29.95,6.0,SSE,3.5,-,N/A,,Mostly Cloudy,150,2013-05-23 11:02:00
7:07 AM,62.6,62.6,100,29.95,2.0,SSE,3.5,-,N/A,,Mostly Cloudy,160,2013-05-23 11:07:00
7:53 AM,64.0,63.0,96,29.94,2.0,Calm,Calm,-,N/A,,Overcast,0,2013-05-23 11:53:00
8:50 AM,66.2,64.4,94,29.96,7.0,SW,4.6,-,N/A,,Overcast,220,2013-05-23 12:50:00
8:53 AM,66.0,64.9,96,29.94,7.0,SW,4.6,-,N/A,,Overcast,220,2013-05-23 12:53:00
9:53 AM,68.0,66.0,93,29.94,10.0,SW,8.1,-,N/A,,Overcast,230,2013-05-23 13:53:00
10:53 AM,71.1,66.0,84,29.93,10.0,SW,8.1,-,N/A,,Overcast,220,2013-05-23 14:53:00
11:20 AM,73.4,66.2,78,29.95,10.0,WSW,8.1,-,N/A,,Overcast,250,2013-05-23 15:20:00
11:53 AM,73.9,64.0,71,29.93,10.0,WSW,5.8,-,N/A,,Mostly Cloudy,250,2013-05-23 15:53:00
12:53 PM,75.9,64.9,69,29.91,10.0,Calm,Calm,-,N/A,,Scattered Clouds,0,2013-05-23 16:53:00
1:53 PM,77.0,64.9,66,29.90,10.0,SW,10.4,-,N/A,,Mostly Cloudy,220,2013-05-23 17:53:00
2:53 PM,79.0,64.9,62,29.86,10.0,SSW,8.1,-,N/A,,Mostly Cloudy,200,2013-05-23 18:53:00
3:53 PM,81.0,63.0,54,29.85,10.0,SSW,13.8,18.4,N/A,,Scattered Clouds,210,2013-05-23 19:53:00
4:25 PM,82.4,62.6,51,29.87,10.0,WSW,11.5,17.3,N/A,Thunderstorm,Partly Cloudy,250,2013-05-23 20:25:00
4:34 PM,82.4,62.6,51,29.87,10.0,SSW,11.5,-,N/A,,Clear,210,2013-05-23 20:34:00
4:53 PM,82.0,62.1,51,29.83,10.0,WSW,13.8,-,N/A,,Clear,240,2013-05-23 20:53:00
5:53 PM,82.0,60.1,47,29.82,10.0,WSW,12.7,-,N/A,,Clear,240,2013-05-23 21:53:00
6:53 PM,80.1,61.0,52,29.81,10.0,SSW,13.8,-,N/A,,Partly Cloudy,210,2013-05-23 22:53:00
7:53 PM,79.0,57.9,48,29.81,10.0,WSW,10.4,19.6,N/A,,Mostly Cloudy,250,2013-05-23 23:53:00
8:53 PM,72.0,57.9,61,29.82,10.0,West,6.9,-,N/A,,Clear,260,2013-05-24 00:53:00
9:53 PM,69.1,57.9,68,29.84,10.0,West,8.1,-,N/A,,Clear,260,2013-05-24 01:53:00
10:53 PM,71.1,57.0,61,29.88,10.0,Variable,3.5,-,N/A,,Overcast,0,2013-05-24 02:53:00
11:53 PM,69.1,57.0,65,29.88,10.0,Calm,Calm,-,N/A,,Overcast,0,2013-05-24 03:53:00